sensor_id;sensor_type;location;lat;lon;timestamp;P1;durP1;ratioP1;P2;durP2;ratioP2
6479;SDS011;71753;48.772;9.148;2024-01-30T00:02:26;7.97;;;4.23;;
6479;SDS011;71753;48.772;9.148;2024-01-30T00:04:53;7.07;;;4.10;;
6479;SDS011;71753;48.772;9.148;2024-01-30T00:07:19;7.90;;;4.20;;
6479;SDS011;71753;48.772;9.148;2024-01-30T00:09:46;11.50;;;4.40;;
6479;SDS011;71753;48.772;9.148;2024-01-30T00:12:14;8.13;;;4.27;;
6479;SDS011;71753;48.772;9.148;2024-01-30T00:14:41;7.23;;;4.00;;
6479;SDS011;71753;48.772;9.148;2024-01-30T00:17:08;7.50;;;4.30;;
6479;SDS011;71753;48.772;9.148;2024-01-30T00:19:35;6.60;;;4.40;;
6479;SDS011;71753;48.772;9.148;2024-01-30T00:22:00;6.20;;;4.20;;
6479;SDS011;71753;48.772;9.148;2024-01-30T00:24:27;10.00;;;4.20;;
6479;SDS011;71753;48.772;9.148;2024-01-30T00:26:53;6.63;;;3.93;;
6479;SDS011;71753;48.772;9.148;2024-01-30T00:29:22;6.97;;;3.77;;
6479;SDS011;71753;48.772;9.148;2024-01-30T00:31:50;7.27;;;4.03;;
6479;SDS011;71753;48.772;9.148;2024-01-30T00:34:17;7.43;;;3.90;;
6479;SDS011;71753;48.772;9.148;2024-01-30T00:36:44;6.83;;;4.30;;
6479;SDS011;71753;48.772;9.148;2024-01-30T00:39:11;6.83;;;4.10;;
6479;SDS011;71753;48.772;9.148;2024-01-30T00:41:37;7.37;;;4.37;;
6479;SDS011;71753;48.772;9.148;2024-01-30T00:44:04;7.83;;;3.93;;
6479;SDS011;71753;48.772;9.148;2024-01-30T00:46:32;9.30;;;4.07;;
6479;SDS011;71753;48.772;9.148;2024-01-30T00:48:58;10.10;;;4.50;;
6479;SDS011;71753;48.772;9.148;2024-01-30T00:51:25;7.00;;;3.90;;
6479;SDS011;71753;48.772;9.148;2024-01-30T00:53:53;6.57;;;4.13;;
6479;SDS011;71753;48.772;9.148;2024-01-30T00:56:20;7.70;;;3.97;;
6479;SDS011;71753;48.772;9.148;2024-01-30T00:58:47;6.70;;;4.03;;
6479;SDS011;71753;48.772;9.148;2024-01-30T01:01:13;7.73;;;4.13;;
6479;SDS011;71753;48.772;9.148;2024-01-30T01:03:42;8.07;;;4.27;;
6479;SDS011;71753;48.772;9.148;2024-01-30T01:06:09;6.63;;;3.80;;
6479;SDS011;71753;48.772;9.148;2024-01-30T01:08:36;9.97;;;4.27;;
6479;SDS011;71753;48.772;9.148;2024-01-30T01:11:03;5.80;;;3.60;;
6479;SDS011;71753;48.772;9.148;2024-01-30T01:13:29;6.70;;;3.93;;
6479;SDS011;71753;48.772;9.148;2024-01-30T01:15:56;5.83;;;3.93;;
6479;SDS011;71753;48.772;9.148;2024-01-30T01:18:23;7.50;;;3.73;;
6479;SDS011;71753;48.772;9.148;2024-01-30T01:20:50;5.27;;;3.33;;
6479;SDS011;71753;48.772;9.148;2024-01-30T01:23:17;5.50;;;3.67;;
6479;SDS011;71753;48.772;9.148;2024-01-30T01:25:44;6.13;;;3.90;;
6479;SDS011;71753;48.772;9.148;2024-01-30T01:28:10;6.93;;;3.87;;
6479;SDS011;71753;48.772;9.148;2024-01-30T01:30:37;5.97;;;3.87;;
6479;SDS011;71753;48.772;9.148;2024-01-30T01:33:04;5.83;;;3.60;;
6479;SDS011;71753;48.772;9.148;2024-01-30T01:35:31;7.60;;;3.93;;
6479;SDS011;71753;48.772;9.148;2024-01-30T01:37:59;5.80;;;3.80;;
6479;SDS011;71753;48.772;9.148;2024-01-30T01:40:27;6.37;;;3.77;;
6479;SDS011;71753;48.772;9.148;2024-01-30T01:42:56;5.83;;;3.80;;
6479;SDS011;71753;48.772;9.148;2024-01-30T01:45:22;5.27;;;3.70;;
6479;SDS011;71753;48.772;9.148;2024-01-30T01:47:50;8.47;;;4.03;;
6479;SDS011;71753;48.772;9.148;2024-01-30T01:50:17;4.83;;;3.67;;
6479;SDS011;71753;48.772;9.148;2024-01-30T01:52:46;5.10;;;3.70;;
6479;SDS011;71753;48.772;9.148;2024-01-30T01:55:15;7.47;;;3.73;;
6479;SDS011;71753;48.772;9.148;2024-01-30T01:57:46;7.00;;;3.63;;
6479;SDS011;71753;48.772;9.148;2024-01-30T02:00:13;6.40;;;3.47;;
6479;SDS011;71753;48.772;9.148;2024-01-30T02:02:40;4.60;;;3.40;;
6479;SDS011;71753;48.772;9.148;2024-01-30T02:05:09;5.30;;;3.30;;
6479;SDS011;71753;48.772;9.148;2024-01-30T02:07:36;5.87;;;3.70;;
6479;SDS011;71753;48.772;9.148;2024-01-30T02:10:03;6.40;;;3.70;;
6479;SDS011;71753;48.772;9.148;2024-01-30T02:12:31;5.60;;;3.43;;
6479;SDS011;71753;48.772;9.148;2024-01-30T02:14:58;6.30;;;3.60;;
6479;SDS011;71753;48.772;9.148;2024-01-30T02:17:25;6.60;;;3.63;;
6479;SDS011;71753;48.772;9.148;2024-01-30T02:19:51;5.77;;;3.63;;
6479;SDS011;71753;48.772;9.148;2024-01-30T02:22:19;5.33;;;3.37;;
6479;SDS011;71753;48.772;9.148;2024-01-30T02:24:47;4.83;;;3.23;;
6479;SDS011;71753;48.772;9.148;2024-01-30T02:27:13;7.63;;;3.60;;
6479;SDS011;71753;48.772;9.148;2024-01-30T02:29:40;4.90;;;3.33;;
6479;SDS011;71753;48.772;9.148;2024-01-30T02:32:06;5.57;;;3.30;;
6479;SDS011;71753;48.772;9.148;2024-01-30T02:34:33;6.77;;;3.67;;
6479;SDS011;71753;48.772;9.148;2024-01-30T02:37:00;6.40;;;3.70;;
6479;SDS011;71753;48.772;9.148;2024-01-30T02:39:28;4.67;;;3.27;;
6479;SDS011;71753;48.772;9.148;2024-01-30T02:41:55;5.60;;;3.27;;
6479;SDS011;71753;48.772;9.148;2024-01-30T02:44:22;6.47;;;3.73;;
6479;SDS011;71753;48.772;9.148;2024-01-30T02:46:48;6.50;;;3.63;;
6479;SDS011;71753;48.772;9.148;2024-01-30T02:49:15;4.43;;;3.30;;
6479;SDS011;71753;48.772;9.148;2024-01-30T02:51:42;6.70;;;3.53;;
6479;SDS011;71753;48.772;9.148;2024-01-30T02:54:08;5.17;;;3.60;;
6479;SDS011;71753;48.772;9.148;2024-01-30T02:56:36;5.33;;;3.63;;
6479;SDS011;71753;48.772;9.148;2024-01-30T02:59:03;6.43;;;3.53;;
6479;SDS011;71753;48.772;9.148;2024-01-30T03:01:29;5.97;;;3.50;;
6479;SDS011;71753;48.772;9.148;2024-01-30T03:03:56;4.77;;;3.43;;
6479;SDS011;71753;48.772;9.148;2024-01-30T03:06:23;4.90;;;3.40;;
6479;SDS011;71753;48.772;9.148;2024-01-30T03:08:50;4.73;;;3.23;;
6479;SDS011;71753;48.772;9.148;2024-01-30T03:11:16;6.10;;;3.60;;
6479;SDS011;71753;48.772;9.148;2024-01-30T03:13:44;5.20;;;3.40;;
6479;SDS011;71753;48.772;9.148;2024-01-30T03:16:11;4.63;;;3.20;;
6479;SDS011;71753;48.772;9.148;2024-01-30T03:18:37;5.23;;;3.23;;
6479;SDS011;71753;48.772;9.148;2024-01-30T03:21:04;3.80;;;2.90;;
6479;SDS011;71753;48.772;9.148;2024-01-30T03:23:31;10.00;;;3.87;;
6479;SDS011;71753;48.772;9.148;2024-01-30T03:25:57;4.83;;;3.40;;
6479;SDS011;71753;48.772;9.148;2024-01-30T03:28:24;6.47;;;3.57;;
6479;SDS011;71753;48.772;9.148;2024-01-30T03:30:52;4.37;;;3.30;;
6479;SDS011;71753;48.772;9.148;2024-01-30T03:33:18;4.17;;;3.43;;
6479;SDS011;71753;48.772;9.148;2024-01-30T03:35:45;5.53;;;3.50;;
6479;SDS011;71753;48.772;9.148;2024-01-30T03:38:12;5.83;;;3.60;;
6479;SDS011;71753;48.772;9.148;2024-01-30T03:40:38;7.60;;;3.73;;
6479;SDS011;71753;48.772;9.148;2024-01-30T03:43:05;5.20;;;3.33;;
6479;SDS011;71753;48.772;9.148;2024-01-30T03:45:31;5.93;;;3.83;;
6479;SDS011;71753;48.772;9.148;2024-01-30T03:47:59;5.47;;;3.70;;
6479;SDS011;71753;48.772;9.148;2024-01-30T03:50:26;5.10;;;3.47;;
6479;SDS011;71753;48.772;9.148;2024-01-30T03:52:53;6.50;;;3.67;;
6479;SDS011;71753;48.772;9.148;2024-01-30T03:55:19;4.40;;;3.40;;
6479;SDS011;71753;48.772;9.148;2024-01-30T03:57:46;6.90;;;4.17;;
6479;SDS011;71753;48.772;9.148;2024-01-30T04:00:14;5.80;;;3.73;;
6479;SDS011;71753;48.772;9.148;2024-01-30T04:02:41;4.93;;;3.50;;
6479;SDS011;71753;48.772;9.148;2024-01-30T04:05:09;7.00;;;3.47;;
6479;SDS011;71753;48.772;9.148;2024-01-30T04:07:35;5.97;;;3.67;;
6479;SDS011;71753;48.772;9.148;2024-01-30T04:10:02;6.20;;;3.60;;
6479;SDS011;71753;48.772;9.148;2024-01-30T04:12:30;5.87;;;3.70;;
6479;SDS011;71753;48.772;9.148;2024-01-30T04:14:57;5.30;;;3.27;;
6479;SDS011;71753;48.772;9.148;2024-01-30T04:17:24;6.63;;;3.60;;
6479;SDS011;71753;48.772;9.148;2024-01-30T04:19:50;5.70;;;3.50;;
6479;SDS011;71753;48.772;9.148;2024-01-30T04:22:18;6.20;;;3.60;;
6479;SDS011;71753;48.772;9.148;2024-01-30T04:24:45;9.03;;;3.83;;
6479;SDS011;71753;48.772;9.148;2024-01-30T04:27:11;5.80;;;3.73;;
6479;SDS011;71753;48.772;9.148;2024-01-30T04:29:38;5.60;;;3.40;;
6479;SDS011;71753;48.772;9.148;2024-01-30T04:32:05;6.90;;;4.00;;
6479;SDS011;71753;48.772;9.148;2024-01-30T04:34:32;4.87;;;3.33;;
6479;SDS011;71753;48.772;9.148;2024-01-30T04:36:59;6.17;;;4.07;;
6479;SDS011;71753;48.772;9.148;2024-01-30T04:39:27;7.00;;;3.90;;
6479;SDS011;71753;48.772;9.148;2024-01-30T04:41:53;6.00;;;4.00;;
6479;SDS011;71753;48.772;9.148;2024-01-30T04:44:20;5.07;;;3.37;;
6479;SDS011;71753;48.772;9.148;2024-01-30T04:46:47;4.80;;;3.60;;
6479;SDS011;71753;48.772;9.148;2024-01-30T04:49:13;5.47;;;3.60;;
6479;SDS011;71753;48.772;9.148;2024-01-30T04:51:40;6.07;;;3.77;;
6479;SDS011;71753;48.772;9.148;2024-01-30T04:54:06;6.43;;;3.87;;
6479;SDS011;71753;48.772;9.148;2024-01-30T04:56:34;5.87;;;3.73;;
6479;SDS011;71753;48.772;9.148;2024-01-30T04:59:01;7.50;;;3.47;;
6479;SDS011;71753;48.772;9.148;2024-01-30T05:01:28;5.50;;;3.70;;
6479;SDS011;71753;48.772;9.148;2024-01-30T05:03:55;6.83;;;3.77;;
6479;SDS011;71753;48.772;9.148;2024-01-30T05:06:25;9.37;;;4.37;;
6479;SDS011;71753;48.772;9.148;2024-01-30T05:08:52;4.70;;;3.47;;
6479;SDS011;71753;48.772;9.148;2024-01-30T05:11:18;7.63;;;4.03;;
6479;SDS011;71753;48.772;9.148;2024-01-30T05:13:46;6.77;;;3.60;;
6479;SDS011;71753;48.772;9.148;2024-01-30T05:16:13;5.53;;;3.83;;
6479;SDS011;71753;48.772;9.148;2024-01-30T05:18:40;7.00;;;3.87;;
6479;SDS011;71753;48.772;9.148;2024-01-30T05:21:06;5.43;;;3.70;;
6479;SDS011;71753;48.772;9.148;2024-01-30T05:23:33;5.23;;;3.53;;
6479;SDS011;71753;48.772;9.148;2024-01-30T05:26:00;7.70;;;3.93;;
6479;SDS011;71753;48.772;9.148;2024-01-30T05:28:27;6.97;;;3.53;;
6479;SDS011;71753;48.772;9.148;2024-01-30T05:30:56;6.20;;;3.63;;
6479;SDS011;71753;48.772;9.148;2024-01-30T05:33:23;4.80;;;3.67;;
6479;SDS011;71753;48.772;9.148;2024-01-30T05:35:49;4.93;;;3.50;;
6479;SDS011;71753;48.772;9.148;2024-01-30T05:38:19;6.03;;;3.57;;
6479;SDS011;71753;48.772;9.148;2024-01-30T05:40:46;6.47;;;3.77;;
6479;SDS011;71753;48.772;9.148;2024-01-30T05:43:12;6.10;;;3.63;;
6479;SDS011;71753;48.772;9.148;2024-01-30T05:45:39;6.47;;;3.90;;
6479;SDS011;71753;48.772;9.148;2024-01-30T05:48:07;5.23;;;3.53;;
6479;SDS011;71753;48.772;9.148;2024-01-30T05:50:34;6.57;;;4.20;;
6479;SDS011;71753;48.772;9.148;2024-01-30T05:53:00;5.33;;;3.63;;
6479;SDS011;71753;48.772;9.148;2024-01-30T05:55:27;5.57;;;4.07;;
6479;SDS011;71753;48.772;9.148;2024-01-30T05:57:54;6.83;;;4.00;;
6479;SDS011;71753;48.772;9.148;2024-01-30T06:00:20;6.63;;;4.23;;
6479;SDS011;71753;48.772;9.148;2024-01-30T06:02:47;7.20;;;3.83;;
6479;SDS011;71753;48.772;9.148;2024-01-30T06:05:15;6.00;;;3.93;;
6479;SDS011;71753;48.772;9.148;2024-01-30T06:07:42;5.83;;;4.10;;
6479;SDS011;71753;48.772;9.148;2024-01-30T06:10:08;6.10;;;4.00;;
6479;SDS011;71753;48.772;9.148;2024-01-30T06:12:35;5.70;;;3.80;;
6479;SDS011;71753;48.772;9.148;2024-01-30T06:15:02;8.33;;;4.27;;
6479;SDS011;71753;48.772;9.148;2024-01-30T06:17:29;8.03;;;4.40;;
6479;SDS011;71753;48.772;9.148;2024-01-30T06:19:55;8.67;;;4.47;;
6479;SDS011;71753;48.772;9.148;2024-01-30T06:22:23;6.77;;;4.10;;
6479;SDS011;71753;48.772;9.148;2024-01-30T06:24:50;6.93;;;3.97;;
6479;SDS011;71753;48.772;9.148;2024-01-30T06:27:17;7.47;;;4.20;;
6479;SDS011;71753;48.772;9.148;2024-01-30T06:29:43;5.67;;;4.17;;
6479;SDS011;71753;48.772;9.148;2024-01-30T06:32:10;7.13;;;4.57;;
6479;SDS011;71753;48.772;9.148;2024-01-30T06:34:37;6.33;;;4.30;;
6479;SDS011;71753;48.772;9.148;2024-01-30T06:37:05;6.77;;;4.27;;
6479;SDS011;71753;48.772;9.148;2024-01-30T06:39:33;9.50;;;4.50;;
6479;SDS011;71753;48.772;9.148;2024-01-30T06:41:59;7.23;;;4.30;;
6479;SDS011;71753;48.772;9.148;2024-01-30T06:44:26;8.00;;;4.63;;
6479;SDS011;71753;48.772;9.148;2024-01-30T06:46:53;6.50;;;4.07;;
6479;SDS011;71753;48.772;9.148;2024-01-30T06:49:19;7.83;;;4.90;;
6479;SDS011;71753;48.772;9.148;2024-01-30T06:51:47;5.80;;;3.60;;
6479;SDS011;71753;48.772;9.148;2024-01-30T06:54:13;7.50;;;4.60;;
6479;SDS011;71753;48.772;9.148;2024-01-30T06:56:41;7.90;;;4.83;;
6479;SDS011;71753;48.772;9.148;2024-01-30T06:59:08;8.70;;;4.33;;
6479;SDS011;71753;48.772;9.148;2024-01-30T07:01:35;6.00;;;4.17;;
6479;SDS011;71753;48.772;9.148;2024-01-30T07:04:01;5.83;;;4.43;;
6479;SDS011;71753;48.772;9.148;2024-01-30T07:06:28;7.63;;;4.43;;
6479;SDS011;71753;48.772;9.148;2024-01-30T07:08:55;8.37;;;4.67;;
6479;SDS011;71753;48.772;9.148;2024-01-30T07:11:21;8.80;;;4.83;;
6479;SDS011;71753;48.772;9.148;2024-01-30T07:13:50;8.33;;;4.83;;
6479;SDS011;71753;48.772;9.148;2024-01-30T07:16:17;7.77;;;3.87;;
6479;SDS011;71753;48.772;9.148;2024-01-30T07:18:43;6.57;;;4.23;;
6479;SDS011;71753;48.772;9.148;2024-01-30T07:21:11;8.93;;;4.37;;
6479;SDS011;71753;48.772;9.148;2024-01-30T07:23:37;6.30;;;4.07;;
6479;SDS011;71753;48.772;9.148;2024-01-30T07:26:04;8.37;;;4.60;;
6479;SDS011;71753;48.772;9.148;2024-01-30T07:28:31;5.53;;;4.17;;
6479;SDS011;71753;48.772;9.148;2024-01-30T07:30:59;10.00;;;4.97;;
6479;SDS011;71753;48.772;9.148;2024-01-30T07:33:26;8.77;;;4.90;;
6479;SDS011;71753;48.772;9.148;2024-01-30T07:35:53;10.73;;;5.37;;
6479;SDS011;71753;48.772;9.148;2024-01-30T07:38:19;7.70;;;4.33;;
6479;SDS011;71753;48.772;9.148;2024-01-30T07:40:46;8.17;;;4.53;;
6479;SDS011;71753;48.772;9.148;2024-01-30T07:43:13;6.67;;;4.40;;
6479;SDS011;71753;48.772;9.148;2024-01-30T07:45:39;7.50;;;4.10;;
6479;SDS011;71753;48.772;9.148;2024-01-30T07:48:07;11.93;;;5.53;;
6479;SDS011;71753;48.772;9.148;2024-01-30T07:50:34;11.23;;;4.30;;
6479;SDS011;71753;48.772;9.148;2024-01-30T07:53:01;6.07;;;4.50;;
6479;SDS011;71753;48.772;9.148;2024-01-30T07:55:28;6.80;;;4.60;;
6479;SDS011;71753;48.772;9.148;2024-01-30T07:57:56;8.60;;;4.73;;
6479;SDS011;71753;48.772;9.148;2024-01-30T08:00:23;5.20;;;4.40;;
6479;SDS011;71753;48.772;9.148;2024-01-30T08:02:50;7.20;;;4.20;;
6479;SDS011;71753;48.772;9.148;2024-01-30T08:05:20;7.63;;;4.53;;
6479;SDS011;71753;48.772;9.148;2024-01-30T08:07:47;7.70;;;5.03;;
6479;SDS011;71753;48.772;9.148;2024-01-30T08:10:14;7.97;;;4.63;;
6479;SDS011;71753;48.772;9.148;2024-01-30T08:12:43;7.70;;;4.93;;
6479;SDS011;71753;48.772;9.148;2024-01-30T08:15:10;7.50;;;5.00;;
6479;SDS011;71753;48.772;9.148;2024-01-30T08:17:37;9.00;;;5.40;;
6479;SDS011;71753;48.772;9.148;2024-01-30T08:20:04;10.00;;;5.37;;
6479;SDS011;71753;48.772;9.148;2024-01-30T08:22:34;8.00;;;4.83;;
6479;SDS011;71753;48.772;9.148;2024-01-30T08:25:01;10.47;;;4.90;;
6479;SDS011;71753;48.772;9.148;2024-01-30T08:27:28;7.77;;;4.90;;
6479;SDS011;71753;48.772;9.148;2024-01-30T08:29:54;8.30;;;4.90;;
6479;SDS011;71753;48.772;9.148;2024-01-30T08:32:21;10.23;;;5.00;;
6479;SDS011;71753;48.772;9.148;2024-01-30T08:34:48;7.87;;;5.23;;
6479;SDS011;71753;48.772;9.148;2024-01-30T08:37:15;8.57;;;5.00;;
6479;SDS011;71753;48.772;9.148;2024-01-30T08:39:44;9.73;;;5.07;;
6479;SDS011;71753;48.772;9.148;2024-01-30T08:42:10;9.10;;;4.80;;
6479;SDS011;71753;48.772;9.148;2024-01-30T08:44:37;11.10;;;5.40;;
6479;SDS011;71753;48.772;9.148;2024-01-30T08:47:04;8.00;;;4.53;;
6479;SDS011;71753;48.772;9.148;2024-01-30T08:49:31;9.23;;;5.50;;
6479;SDS011;71753;48.772;9.148;2024-01-30T08:51:58;11.57;;;5.17;;
6479;SDS011;71753;48.772;9.148;2024-01-30T08:54:24;8.87;;;4.87;;
6479;SDS011;71753;48.772;9.148;2024-01-30T08:56:52;11.47;;;5.63;;
6479;SDS011;71753;48.772;9.148;2024-01-30T08:59:21;7.80;;;4.90;;
6479;SDS011;71753;48.772;9.148;2024-01-30T09:01:48;8.43;;;4.93;;
6479;SDS011;71753;48.772;9.148;2024-01-30T09:04:18;8.63;;;5.23;;
6479;SDS011;71753;48.772;9.148;2024-01-30T09:06:45;8.80;;;5.20;;
6479;SDS011;71753;48.772;9.148;2024-01-30T09:09:12;10.07;;;4.93;;
6479;SDS011;71753;48.772;9.148;2024-01-30T09:11:39;8.90;;;5.50;;
6479;SDS011;71753;48.772;9.148;2024-01-30T09:14:07;9.93;;;5.17;;
6479;SDS011;71753;48.772;9.148;2024-01-30T09:16:34;8.57;;;5.20;;
6479;SDS011;71753;48.772;9.148;2024-01-30T09:19:01;8.80;;;5.27;;
6479;SDS011;71753;48.772;9.148;2024-01-30T09:21:27;9.77;;;5.10;;
6479;SDS011;71753;48.772;9.148;2024-01-30T09:23:54;8.20;;;5.40;;
6479;SDS011;71753;48.772;9.148;2024-01-30T09:26:27;8.43;;;5.30;;
6479;SDS011;71753;48.772;9.148;2024-01-30T09:28:54;8.97;;;5.70;;
6479;SDS011;71753;48.772;9.148;2024-01-30T09:31:22;8.40;;;5.30;;
6479;SDS011;71753;48.772;9.148;2024-01-30T09:33:49;9.60;;;5.60;;
6479;SDS011;71753;48.772;9.148;2024-01-30T09:36:16;11.27;;;5.53;;
6479;SDS011;71753;48.772;9.148;2024-01-30T09:38:44;9.63;;;5.70;;
6479;SDS011;71753;48.772;9.148;2024-01-30T09:41:11;11.67;;;6.50;;
6479;SDS011;71753;48.772;9.148;2024-01-30T09:43:38;11.77;;;6.00;;
6479;SDS011;71753;48.772;9.148;2024-01-30T09:46:06;11.90;;;6.47;;
6479;SDS011;71753;48.772;9.148;2024-01-30T09:48:39;10.57;;;5.80;;
6479;SDS011;71753;48.772;9.148;2024-01-30T09:51:07;11.17;;;5.93;;
6479;SDS011;71753;48.772;9.148;2024-01-30T09:53:35;9.87;;;5.80;;
6479;SDS011;71753;48.772;9.148;2024-01-30T09:56:03;11.13;;;6.47;;
6479;SDS011;71753;48.772;9.148;2024-01-30T09:58:31;12.40;;;6.43;;
6479;SDS011;71753;48.772;9.148;2024-01-30T10:00:58;11.77;;;6.30;;
6479;SDS011;71753;48.772;9.148;2024-01-30T10:03:24;9.90;;;6.37;;
6479;SDS011;71753;48.772;9.148;2024-01-30T10:05:53;15.47;;;6.80;;
6479;SDS011;71753;48.772;9.148;2024-01-30T10:08:22;13.47;;;7.80;;
6479;SDS011;71753;48.772;9.148;2024-01-30T10:10:49;15.97;;;7.47;;
6479;SDS011;71753;48.772;9.148;2024-01-30T10:13:16;11.80;;;6.97;;
6479;SDS011;71753;48.772;9.148;2024-01-30T10:15:43;10.43;;;7.27;;
6479;SDS011;71753;48.772;9.148;2024-01-30T10:18:10;11.80;;;7.03;;
6479;SDS011;71753;48.772;9.148;2024-01-30T10:20:36;11.47;;;6.40;;
6479;SDS011;71753;48.772;9.148;2024-01-30T10:23:05;12.33;;;6.13;;
6479;SDS011;71753;48.772;9.148;2024-01-30T10:25:32;10.27;;;6.70;;
6479;SDS011;71753;48.772;9.148;2024-01-30T10:27:59;9.53;;;6.30;;
6479;SDS011;71753;48.772;9.148;2024-01-30T10:30:26;10.70;;;6.70;;
6479;SDS011;71753;48.772;9.148;2024-01-30T10:32:54;12.47;;;6.70;;
6479;SDS011;71753;48.772;9.148;2024-01-30T10:35:20;15.93;;;7.07;;
6479;SDS011;71753;48.772;9.148;2024-01-30T10:37:48;12.13;;;6.50;;
6479;SDS011;71753;48.772;9.148;2024-01-30T10:40:16;11.90;;;6.27;;
6479;SDS011;71753;48.772;9.148;2024-01-30T10:42:45;11.77;;;6.87;;
6479;SDS011;71753;48.772;9.148;2024-01-30T10:45:12;12.10;;;6.93;;
6479;SDS011;71753;48.772;9.148;2024-01-30T10:47:42;10.50;;;6.60;;
6479;SDS011;71753;48.772;9.148;2024-01-30T10:50:11;11.77;;;6.50;;
6479;SDS011;71753;48.772;9.148;2024-01-30T10:52:39;12.73;;;6.97;;
6479;SDS011;71753;48.772;9.148;2024-01-30T10:55:07;11.47;;;6.33;;
6479;SDS011;71753;48.772;9.148;2024-01-30T10:57:36;12.43;;;6.57;;
6479;SDS011;71753;48.772;9.148;2024-01-30T11:00:04;11.00;;;6.60;;
6479;SDS011;71753;48.772;9.148;2024-01-30T11:02:35;11.80;;;6.37;;
6479;SDS011;71753;48.772;9.148;2024-01-30T11:05:04;11.80;;;6.83;;
6479;SDS011;71753;48.772;9.148;2024-01-30T11:07:31;12.33;;;6.83;;
6479;SDS011;71753;48.772;9.148;2024-01-30T11:10:01;14.30;;;6.93;;
6479;SDS011;71753;48.772;9.148;2024-01-30T11:12:29;11.13;;;6.43;;
6479;SDS011;71753;48.772;9.148;2024-01-30T11:15:03;11.17;;;6.70;;
6479;SDS011;71753;48.772;9.148;2024-01-30T11:20:18;12.13;;;6.60;;
6479;SDS011;71753;48.772;9.148;2024-01-30T11:22:46;9.80;;;6.23;;
6479;SDS011;71753;48.772;9.148;2024-01-30T11:25:14;10.53;;;6.90;;
6479;SDS011;71753;48.772;9.148;2024-01-30T11:27:42;12.50;;;6.90;;
6479;SDS011;71753;48.772;9.148;2024-01-30T11:30:10;11.53;;;6.73;;
6479;SDS011;71753;48.772;9.148;2024-01-30T11:32:46;12.07;;;6.73;;
6479;SDS011;71753;48.772;9.148;2024-01-30T11:35:24;13.90;;;6.80;;
6479;SDS011;71753;48.772;9.148;2024-01-30T11:37:51;10.77;;;5.90;;
6479;SDS011;71753;48.772;9.148;2024-01-30T11:40:20;10.03;;;6.40;;
6479;SDS011;71753;48.772;9.148;2024-01-30T11:42:47;8.40;;;5.97;;
6479;SDS011;71753;48.772;9.148;2024-01-30T11:45:16;11.83;;;7.57;;
6479;SDS011;71753;48.772;9.148;2024-01-30T11:47:43;13.33;;;7.27;;
6479;SDS011;71753;48.772;9.148;2024-01-30T11:50:10;12.37;;;7.03;;
6479;SDS011;71753;48.772;9.148;2024-01-30T11:52:37;13.03;;;7.47;;
6479;SDS011;71753;48.772;9.148;2024-01-30T11:55:04;12.40;;;7.00;;
6479;SDS011;71753;48.772;9.148;2024-01-30T11:57:33;10.57;;;6.83;;
6479;SDS011;71753;48.772;9.148;2024-01-30T12:00:00;9.17;;;6.53;;
6479;SDS011;71753;48.772;9.148;2024-01-30T12:02:28;12.67;;;6.43;;
6479;SDS011;71753;48.772;9.148;2024-01-30T12:04:54;15.53;;;7.37;;
6479;SDS011;71753;48.772;9.148;2024-01-30T12:07:21;14.20;;;6.80;;
6479;SDS011;71753;48.772;9.148;2024-01-30T12:09:52;11.90;;;7.10;;
6479;SDS011;71753;48.772;9.148;2024-01-30T12:12:20;13.17;;;6.63;;
6479;SDS011;71753;48.772;9.148;2024-01-30T12:14:48;12.00;;;6.53;;
6479;SDS011;71753;48.772;9.148;2024-01-30T12:17:22;12.17;;;6.80;;
6479;SDS011;71753;48.772;9.148;2024-01-30T12:19:51;9.97;;;6.47;;
6479;SDS011;71753;48.772;9.148;2024-01-30T12:22:28;9.77;;;5.83;;
6479;SDS011;71753;48.772;9.148;2024-01-30T12:24:55;10.87;;;6.20;;
6479;SDS011;71753;48.772;9.148;2024-01-30T12:27:22;10.43;;;6.67;;
6479;SDS011;71753;48.772;9.148;2024-01-30T12:29:55;13.43;;;7.27;;
6479;SDS011;71753;48.772;9.148;2024-01-30T12:32:22;14.40;;;6.93;;
6479;SDS011;71753;48.772;9.148;2024-01-30T12:34:50;12.67;;;6.73;;
6479;SDS011;71753;48.772;9.148;2024-01-30T12:37:20;12.37;;;7.10;;
6479;SDS011;71753;48.772;9.148;2024-01-30T12:39:49;11.30;;;7.03;;
6479;SDS011;71753;48.772;9.148;2024-01-30T12:42:17;13.47;;;6.47;;
6479;SDS011;71753;48.772;9.148;2024-01-30T12:44:45;9.07;;;6.10;;
6479;SDS011;71753;48.772;9.148;2024-01-30T12:47:12;16.13;;;6.90;;
6479;SDS011;71753;48.772;9.148;2024-01-30T12:49:41;11.47;;;6.53;;
6479;SDS011;71753;48.772;9.148;2024-01-30T12:52:09;12.37;;;6.33;;
6479;SDS011;71753;48.772;9.148;2024-01-30T12:54:36;12.83;;;6.77;;
6479;SDS011;71753;48.772;9.148;2024-01-30T12:57:02;9.10;;;6.17;;
6479;SDS011;71753;48.772;9.148;2024-01-30T12:59:30;10.70;;;5.93;;
6479;SDS011;71753;48.772;9.148;2024-01-30T13:01:56;13.13;;;7.00;;
6479;SDS011;71753;48.772;9.148;2024-01-30T13:04:24;13.90;;;6.37;;
6479;SDS011;71753;48.772;9.148;2024-01-30T13:06:51;12.50;;;7.03;;
6479;SDS011;71753;48.772;9.148;2024-01-30T13:09:19;12.20;;;7.03;;
6479;SDS011;71753;48.772;9.148;2024-01-30T13:11:46;14.37;;;6.83;;
6479;SDS011;71753;48.772;9.148;2024-01-30T13:14:13;12.50;;;7.37;;
6479;SDS011;71753;48.772;9.148;2024-01-30T13:16:39;10.83;;;6.70;;
6479;SDS011;71753;48.772;9.148;2024-01-30T13:19:06;11.60;;;7.10;;
6479;SDS011;71753;48.772;9.148;2024-01-30T13:21:33;12.43;;;6.73;;
6479;SDS011;71753;48.772;9.148;2024-01-30T13:23:59;11.27;;;6.70;;
6479;SDS011;71753;48.772;9.148;2024-01-30T13:26:27;10.70;;;6.30;;
6479;SDS011;71753;48.772;9.148;2024-01-30T13:28:56;10.53;;;6.13;;
6479;SDS011;71753;48.772;9.148;2024-01-30T13:31:22;12.53;;;6.00;;
6479;SDS011;71753;48.772;9.148;2024-01-30T13:33:49;9.13;;;6.43;;
6479;SDS011;71753;48.772;9.148;2024-01-30T13:36:16;12.50;;;6.53;;
6479;SDS011;71753;48.772;9.148;2024-01-30T13:38:43;9.17;;;5.73;;
6479;SDS011;71753;48.772;9.148;2024-01-30T13:41:09;10.80;;;6.20;;
6479;SDS011;71753;48.772;9.148;2024-01-30T13:43:37;11.77;;;6.00;;
6479;SDS011;71753;48.772;9.148;2024-01-30T13:46:04;10.90;;;6.33;;
6479;SDS011;71753;48.772;9.148;2024-01-30T13:48:31;9.93;;;6.07;;
6479;SDS011;71753;48.772;9.148;2024-01-30T13:50:58;11.60;;;6.33;;
6479;SDS011;71753;48.772;9.148;2024-01-30T13:53:24;9.17;;;5.83;;
6479;SDS011;71753;48.772;9.148;2024-01-30T13:55:51;12.00;;;6.00;;
6479;SDS011;71753;48.772;9.148;2024-01-30T13:58:18;12.57;;;6.40;;
6479;SDS011;71753;48.772;9.148;2024-01-30T14:00:46;10.70;;;5.97;;
6479;SDS011;71753;48.772;9.148;2024-01-30T14:03:12;11.53;;;6.20;;
6479;SDS011;71753;48.772;9.148;2024-01-30T14:05:39;11.47;;;6.30;;
6479;SDS011;71753;48.772;9.148;2024-01-30T14:08:06;9.90;;;5.87;;
6479;SDS011;71753;48.772;9.148;2024-01-30T14:10:33;11.83;;;6.50;;
6479;SDS011;71753;48.772;9.148;2024-01-30T14:13:00;14.20;;;6.07;;
6479;SDS011;71753;48.772;9.148;2024-01-30T14:15:27;12.83;;;6.10;;
6479;SDS011;71753;48.772;9.148;2024-01-30T14:17:55;9.90;;;6.20;;
6479;SDS011;71753;48.772;9.148;2024-01-30T14:20:22;12.30;;;6.53;;
6479;SDS011;71753;48.772;9.148;2024-01-30T14:22:48;13.60;;;6.40;;
6479;SDS011;71753;48.772;9.148;2024-01-30T14:25:15;11.77;;;6.13;;
6479;SDS011;71753;48.772;9.148;2024-01-30T14:27:42;14.13;;;6.53;;
6479;SDS011;71753;48.772;9.148;2024-01-30T14:30:09;9.53;;;5.90;;
6479;SDS011;71753;48.772;9.148;2024-01-30T14:32:37;10.03;;;5.97;;
6479;SDS011;71753;48.772;9.148;2024-01-30T14:35:06;11.03;;;5.63;;
6479;SDS011;71753;48.772;9.148;2024-01-30T14:37:34;9.07;;;5.77;;
6479;SDS011;71753;48.772;9.148;2024-01-30T14:40:00;12.60;;;5.90;;
6479;SDS011;71753;48.772;9.148;2024-01-30T14:42:27;9.10;;;5.40;;
6479;SDS011;71753;48.772;9.148;2024-01-30T14:44:56;9.90;;;5.70;;
6479;SDS011;71753;48.772;9.148;2024-01-30T14:47:23;9.17;;;4.80;;
6479;SDS011;71753;48.772;9.148;2024-01-30T14:49:50;10.43;;;6.23;;
6479;SDS011;71753;48.772;9.148;2024-01-30T14:52:18;9.67;;;5.60;;
6479;SDS011;71753;48.772;9.148;2024-01-30T14:54:45;8.60;;;5.70;;
6479;SDS011;71753;48.772;9.148;2024-01-30T14:57:11;10.93;;;6.30;;
6479;SDS011;71753;48.772;9.148;2024-01-30T14:59:39;8.97;;;6.10;;
6479;SDS011;71753;48.772;9.148;2024-01-30T15:02:06;10.73;;;5.47;;